createdAt,value
2018-12-19T00:00:45.111Z,75.14
2018-12-19T00:03:12.508Z,75.31
2018-12-19T00:05:39.983Z,75.18
2018-12-19T00:08:07.841Z,75.18
2018-12-19T00:10:34.845Z,75.37
2018-12-19T00:13:02.247Z,75.36
2018-12-19T00:15:30.361Z,75.16
2018-12-19T00:17:57.330Z,75.30
2018-12-19T00:20:24.306Z,75.54
2018-12-19T00:22:51.254Z,75.21
2018-12-19T00:25:18.214Z,75.33
2018-12-19T00:27:45.210Z,75.52
2018-12-19T00:30:12.159Z,75.60
2018-12-19T00:32:39.141Z,75.99
2018-12-19T00:35:06.227Z,75.62
2018-12-19T00:37:33.293Z,75.59
2018-12-19T00:40:00.250Z,75.31
2018-12-19T00:42:27.264Z,75.34
2018-12-19T00:44:55.636Z,75.35
2018-12-19T00:47:23.044Z,75.37
2018-12-19T00:49:50.474Z,75.07
2018-12-19T00:52:17.458Z,74.98
2018-12-19T00:54:44.650Z,74.91
2018-12-19T00:57:12.413Z,74.91
2018-12-19T00:59:39.894Z,74.84
2018-12-19T01:02:07.304Z,74.51
2018-12-19T01:04:34.268Z,74.84
2018-12-19T01:07:01.256Z,74.83
2018-12-19T01:09:28.227Z,74.83
2018-12-19T01:11:56.226Z,75.02
2018-12-19T01:14:23.200Z,75.00
2018-12-19T01:16:50.177Z,75.13
2018-12-19T01:19:17.283Z,75.39
2018-12-19T01:21:44.245Z,75.39
2018-12-19T01:24:11.256Z,75.04
2018-12-19T01:26:38.329Z,75.04
2018-12-19T01:29:05.343Z,74.61
2018-12-19T01:31:32.410Z,74.65
2018-12-19T01:33:59.410Z,74.54
2018-12-19T01:36:26.821Z,74.27
2018-12-19T01:38:54.229Z,74.22
2018-12-19T01:41:21.652Z,74.56
2018-12-19T01:43:49.446Z,74.71
2018-12-19T01:46:16.851Z,74.37
2018-12-19T01:48:44.287Z,74.35
2018-12-19T01:51:11.700Z,74.01
2018-12-19T01:53:39.271Z,73.87
2018-12-19T01:56:06.761Z,73.70
2018-12-19T01:58:34.165Z,73.60
2018-12-19T02:01:01.586Z,73.73
2018-12-19T02:03:29.000Z,73.81
2018-12-19T02:05:56.804Z,74.05
2018-12-19T02:08:24.252Z,74.11
2018-12-19T02:10:51.679Z,74.05
2018-12-19T02:13:19.265Z,73.81
2018-12-19T02:15:46.659Z,73.81
2018-12-19T02:18:14.075Z,73.77
2018-12-19T02:20:41.472Z,74.04
2018-12-19T02:23:09.503Z,74.25
2018-12-19T02:25:36.918Z,74.33
2018-12-19T02:28:04.655Z,74.54
2018-12-19T02:30:32.064Z,74.41
2018-12-19T02:32:59.547Z,74.12
2018-12-19T02:35:27.644Z,74.38
2018-12-19T02:37:56.000Z,74.56
2018-12-19T02:40:23.404Z,74.54
2018-12-19T02:42:50.839Z,74.47
2018-12-19T02:45:18.255Z,74.34
2018-12-19T02:47:45.659Z,74.32
2018-12-19T02:50:13.096Z,74.16
2018-12-19T02:52:40.546Z,74.18
2018-12-19T02:55:07.931Z,74.31
2018-12-19T02:57:35.403Z,74.51
2018-12-19T03:00:02.796Z,74.76
2018-12-19T03:02:30.355Z,74.56
2018-12-19T03:04:57.796Z,74.86
2018-12-19T03:07:25.196Z,74.73
2018-12-19T03:09:52.625Z,74.39
2018-12-19T03:12:20.635Z,74.29
2018-12-19T03:14:48.050Z,74.35
2018-12-19T03:17:15.461Z,74.31
2018-12-19T03:19:42.862Z,74.53
2018-12-19T03:22:10.315Z,74.76
2018-12-19T03:24:37.712Z,74.54
2018-12-19T03:27:05.151Z,74.67
2018-12-19T03:29:32.546Z,74.10
2018-12-19T03:32:00.020Z,74.21
2018-12-19T03:34:27.415Z,73.65
2018-12-19T03:36:55.869Z,73.75
2018-12-19T03:39:23.266Z,73.76
2018-12-19T03:41:51.028Z,73.35
2018-12-19T03:44:18.439Z,73.12
2018-12-19T03:46:45.846Z,73.13
2018-12-19T03:49:13.374Z,72.95
2018-12-19T03:51:40.778Z,73.14
2018-12-19T03:54:08.174Z,72.97
2018-12-19T03:56:35.733Z,73.00
2018-12-19T03:59:03.128Z,73.10
2018-12-19T04:01:30.530Z,73.50
2018-12-19T04:03:57.949Z,73.65
2018-12-19T04:06:25.703Z,73.61
2018-12-19T04:08:53.124Z,73.63
2018-12-19T04:11:20.559Z,74.02
2018-12-19T04:13:48.048Z,74.09
2018-12-19T04:16:15.457Z,74.09
2018-12-19T04:18:42.870Z,74.29
2018-12-19T04:21:10.526Z,74.28
2018-12-19T04:23:37.925Z,74.21
2018-12-19T04:26:05.322Z,74.15
2018-12-19T04:28:32.706Z,74.08
2018-12-19T04:31:00.115Z,74.17
2018-12-19T04:33:27.806Z,74.13
2018-12-19T04:35:55.257Z,73.78
2018-12-19T04:38:22.983Z,74.05
2018-12-19T04:40:51.080Z,73.89
2018-12-19T04:43:18.598Z,73.60
2018-12-19T04:45:46.175Z,73.49
2018-12-19T04:48:13.588Z,73.43
2018-12-19T04:50:40.998Z,73.57
2018-12-19T04:53:08.396Z,73.48
2018-12-19T04:55:36.463Z,73.49
2018-12-19T04:58:03.870Z,73.49
2018-12-19T05:00:31.288Z,73.47
2018-12-19T05:02:58.716Z,73.48
2018-12-19T05:05:26.110Z,73.48
2018-12-19T05:07:53.548Z,73.10
2018-12-19T05:10:20.947Z,72.82
2018-12-19T05:12:48.359Z,72.91
2018-12-19T05:15:15.811Z,73.42
2018-12-19T05:17:43.847Z,72.91
2018-12-19T05:20:11.262Z,72.66
2018-12-19T05:22:38.661Z,72.66
2018-12-19T05:25:10.845Z,72.73
2018-12-19T05:27:38.250Z,72.47
2018-12-19T05:30:05.749Z,72.57
2018-12-19T05:32:33.255Z,72.76
2018-12-19T05:35:00.685Z,72.79
2018-12-19T05:37:28.103Z,72.74
2018-12-19T05:39:55.511Z,72.49
2018-12-19T05:42:22.922Z,72.53
2018-12-19T05:44:50.949Z,72.40
2018-12-19T05:47:18.359Z,72.46
2018-12-19T05:49:45.798Z,72.70
2018-12-19T05:52:13.510Z,72.75
2018-12-19T05:54:40.912Z,72.59
2018-12-19T05:57:08.424Z,72.58
2018-12-19T05:59:35.808Z,72.36
2018-12-19T06:02:03.281Z,72.35
2018-12-19T06:04:30.673Z,72.25
2018-12-19T06:06:58.114Z,72.25
2018-12-19T06:09:25.569Z,72.47
2018-12-19T06:11:53.757Z,72.20
2018-12-19T06:14:21.216Z,72.36
2018-12-19T06:16:48.651Z,72.51
2018-12-19T06:19:16.097Z,72.79
2018-12-19T06:21:43.869Z,72.93
2018-12-19T06:24:11.273Z,72.89
2018-12-19T06:26:38.690Z,72.95
2018-12-19T06:29:06.113Z,72.79
2018-12-19T06:31:34.110Z,72.54
2018-12-19T06:34:01.512Z,72.62
2018-12-19T06:36:28.906Z,72.50
2018-12-19T06:38:56.861Z,72.30
2018-12-19T06:41:24.290Z,72.13
2018-12-19T06:43:51.700Z,72.14
2018-12-19T06:46:19.143Z,72.38
2018-12-19T06:48:46.553Z,72.09
2018-12-19T06:51:14.502Z,71.75
2018-12-19T06:53:41.895Z,71.49
2018-12-19T06:56:09.520Z,72.02
2018-12-19T06:58:36.903Z,72.27
2018-12-19T07:01:03.893Z,72.20
2018-12-19T07:03:31.114Z,72.28
2018-12-19T07:05:58.699Z,72.29
2018-12-19T07:11:35.600Z,71.45
2018-12-19T07:14:02.597Z,71.50
2018-12-19T07:16:29.557Z,71.48
2018-12-19T07:18:56.547Z,71.41
2018-12-19T07:21:24.170Z,71.22
2018-12-19T07:23:51.308Z,71.25
2018-12-19T07:26:18.835Z,71.35
2018-12-19T07:28:45.833Z,71.15
2018-12-19T07:31:12.892Z,71.10
2018-12-19T07:33:41.133Z,70.58
2018-12-19T07:36:09.515Z,69.33
2018-12-19T07:38:37.513Z,69.94
2018-12-19T07:41:05.665Z,70.19
2018-12-19T07:43:32.866Z,69.82
2018-12-19T07:45:59.871Z,69.46
2018-12-19T07:48:27.321Z,69.12
2018-12-19T07:50:54.314Z,69.34
2018-12-19T07:53:21.238Z,69.51
2018-12-19T07:55:48.694Z,69.24
2018-12-19T07:58:15.722Z,69.80
2018-12-19T08:00:43.154Z,69.36
2018-12-19T08:03:10.548Z,69.00
2018-12-19T08:05:38.030Z,68.41
2018-12-19T08:08:04.968Z,67.95
2018-12-19T08:10:32.362Z,67.75
2018-12-19T08:12:59.775Z,67.22
2018-12-19T08:15:27.180Z,67.28
2018-12-19T08:17:54.782Z,67.70
2018-12-19T08:20:22.224Z,67.89
2018-12-19T08:22:49.641Z,68.23
2018-12-19T08:25:17.102Z,69.04
2018-12-19T08:27:44.055Z,69.44
2018-12-19T08:30:11.051Z,69.90
2018-12-19T08:32:38.456Z,70.07
2018-12-19T08:35:05.883Z,70.33
2018-12-19T08:37:33.478Z,70.57
2018-12-19T08:40:00.875Z,70.59
2018-12-19T08:42:28.309Z,70.63
2018-12-19T08:44:55.726Z,70.46
2018-12-19T08:47:23.714Z,70.63
2018-12-19T08:49:51.093Z,70.71
2018-12-19T08:52:18.513Z,71.27
2018-12-19T08:54:45.916Z,71.22
2018-12-19T08:57:13.388Z,71.49
2018-12-19T08:59:40.878Z,71.80
2018-12-19T09:02:08.286Z,71.52
2018-12-19T09:04:35.689Z,71.83
2018-12-19T09:07:03.084Z,71.83
2018-12-19T09:09:31.824Z,72.29
2018-12-19T09:11:57.888Z,71.86
2018-12-19T09:14:25.314Z,71.51
2018-12-19T09:16:52.823Z,71.43
2018-12-19T09:19:20.274Z,71.17
2018-12-19T09:21:47.681Z,71.20
2018-12-19T09:24:15.103Z,71.45
2018-12-19T09:26:42.056Z,71.74
2018-12-19T09:29:09.458Z,71.57
2018-12-19T09:31:36.399Z,71.61
2018-12-19T09:34:03.882Z,71.91
2018-12-19T09:36:32.145Z,71.92
2018-12-19T09:38:59.073Z,72.00
2018-12-19T09:41:26.486Z,71.89
2018-12-19T09:43:53.878Z,71.86
2018-12-19T09:46:21.313Z,72.03
2018-12-19T09:48:48.718Z,71.98
2018-12-19T09:51:16.207Z,72.29
2018-12-19T09:53:43.639Z,72.17
2018-12-19T09:56:11.037Z,72.15
2018-12-19T09:58:38.545Z,72.26
2018-12-19T10:01:06.046Z,72.56
2018-12-19T10:03:33.458Z,73.30
2018-12-19T10:06:00.888Z,73.89
2018-12-19T10:08:28.343Z,73.36
2018-12-19T10:10:55.829Z,73.29
2018-12-19T10:13:23.242Z,72.97
2018-12-19T10:15:50.196Z,72.96
2018-12-19T10:18:17.636Z,73.25
2018-12-19T10:20:45.067Z,72.82
2018-12-19T10:23:12.463Z,72.72
2018-12-19T10:28:13.658Z,73.45
2018-12-19T10:30:47.721Z,74.04
2018-12-19T10:33:15.185Z,74.66
2018-12-19T10:35:42.660Z,74.57
2018-12-19T10:38:10.070Z,73.59
2018-12-19T10:40:37.495Z,72.00
2018-12-19T10:43:04.951Z,71.07
2018-12-19T10:45:32.393Z,71.11
2018-12-19T10:47:59.807Z,70.96
2018-12-19T10:50:27.276Z,71.58
2018-12-19T10:52:54.705Z,71.88
2018-12-19T10:55:22.092Z,72.27
2018-12-19T10:57:49.573Z,71.55
2018-12-19T11:00:22.455Z,71.32
2018-12-19T11:02:49.863Z,71.13
2018-12-19T11:05:17.327Z,71.56
2018-12-19T11:07:44.756Z,71.50
2018-12-19T11:10:12.175Z,71.36
2018-12-19T11:12:39.604Z,70.29
2018-12-19T11:15:07.058Z,70.22
2018-12-19T11:17:34.469Z,69.61
2018-12-19T11:20:01.867Z,70.07
2018-12-19T11:22:29.553Z,70.28
2018-12-19T11:24:56.960Z,70.73
2018-12-19T11:27:24.459Z,71.78
2018-12-19T11:29:51.868Z,72.62
2018-12-19T11:32:19.263Z,72.59
2018-12-19T11:34:46.729Z,72.02
2018-12-19T11:37:14.142Z,71.50
2018-12-19T11:39:41.593Z,71.11
2018-12-19T11:42:09.001Z,71.51
2018-12-19T11:44:36.444Z,72.11
2018-12-19T11:47:03.876Z,72.62
2018-12-19T11:49:31.298Z,72.79
2018-12-19T11:51:58.744Z,72.61
2018-12-19T11:54:26.179Z,72.57
2018-12-19T11:56:53.578Z,72.33
2018-12-19T11:59:21.201Z,72.50
2018-12-19T12:01:48.624Z,73.68
2018-12-19T12:04:16.011Z,74.21
2018-12-19T12:06:43.476Z,73.44
2018-12-19T12:09:10.884Z,73.16
2018-12-19T12:11:38.351Z,72.98
2018-12-19T12:14:05.761Z,73.10
2018-12-19T12:16:33.196Z,73.32
2018-12-19T12:19:00.601Z,74.33
2018-12-19T12:21:28.049Z,74.48
2018-12-19T12:23:55.459Z,75.08
2018-12-19T12:26:22.960Z,75.89
2018-12-19T12:28:50.360Z,75.74
2018-12-19T12:31:17.776Z,76.35
2018-12-19T12:33:45.173Z,77.08
2018-12-19T12:36:12.620Z,76.97
2018-12-19T12:38:40.031Z,77.54
2018-12-19T12:41:07.421Z,77.62
2018-12-19T12:43:34.874Z,78.03
2018-12-19T12:46:02.308Z,78.20
2018-12-19T12:48:29.758Z,78.30
2018-12-19T12:50:57.175Z,78.18
2018-12-19T12:53:24.675Z,78.38
2018-12-19T12:55:52.068Z,79.35
2018-12-19T12:58:19.517Z,79.75
2018-12-19T13:00:46.922Z,79.92
2018-12-19T13:03:14.369Z,80.71
2018-12-19T13:05:41.772Z,80.73
2018-12-19T13:08:09.210Z,80.57
2018-12-19T13:10:36.644Z,80.94
2018-12-19T13:13:04.124Z,81.03
2018-12-19T13:15:38.025Z,81.54
2018-12-19T13:18:05.437Z,82.02
2018-12-19T13:20:32.865Z,82.41
2018-12-19T13:23:00.275Z,82.45
2018-12-19T13:25:27.683Z,82.12
2018-12-19T13:27:55.086Z,81.87
2018-12-19T13:30:22.477Z,81.80
2018-12-19T13:32:49.962Z,81.83
2018-12-19T13:35:17.368Z,82.18
2018-12-19T13:37:44.809Z,82.56
2018-12-19T13:40:12.216Z,82.82
2018-12-19T13:42:39.728Z,82.49
2018-12-19T13:45:07.202Z,82.64
2018-12-19T13:47:34.636Z,83.16
2018-12-19T13:50:02.067Z,83.34
2018-12-19T13:52:29.487Z,83.33
2018-12-19T13:54:56.905Z,83.49
2018-12-19T13:57:24.303Z,83.39
2018-12-19T13:59:51.715Z,83.45
2018-12-19T14:02:19.183Z,83.31
2018-12-19T14:04:46.629Z,83.26
2018-12-19T14:07:14.234Z,82.99
2018-12-19T14:09:41.689Z,82.94
2018-12-19T14:12:12.297Z,82.61
2018-12-19T14:14:36.572Z,81.97
2018-12-19T14:17:03.959Z,81.69
2018-12-19T14:19:31.422Z,81.41
2018-12-19T14:21:58.851Z,81.43
2018-12-19T14:24:26.343Z,81.23
2018-12-19T14:26:53.808Z,80.65
2018-12-19T14:29:21.864Z,80.48
2018-12-19T14:31:49.268Z,80.25
2018-12-19T14:34:16.693Z,80.46
2018-12-19T14:36:44.174Z,80.19
2018-12-19T14:39:11.536Z,80.40
2018-12-19T14:41:38.963Z,80.75
2018-12-19T14:44:06.391Z,80.16
2018-12-19T14:46:33.828Z,80.07
2018-12-19T14:49:01.250Z,80.12
2018-12-19T14:51:28.657Z,80.33
2018-12-19T14:53:56.122Z,80.36
2018-12-19T14:56:23.529Z,80.32
2018-12-19T14:58:50.935Z,79.98
2018-12-19T15:01:18.348Z,79.88
2018-12-19T15:03:45.847Z,79.81
2018-12-19T15:06:13.341Z,79.78
2018-12-19T15:08:40.790Z,79.86
2018-12-19T15:11:08.216Z,79.73
2018-12-19T15:13:35.653Z,80.10
2018-12-19T15:16:03.056Z,80.12
2018-12-19T15:18:30.468Z,80.04
2018-12-19T15:20:57.870Z,80.29
2018-12-19T15:23:25.282Z,80.88
2018-12-19T15:25:52.679Z,80.76
2018-12-19T15:28:20.073Z,80.64
2018-12-19T15:30:47.472Z,80.80
2018-12-19T15:33:14.891Z,80.79
2018-12-19T15:35:42.297Z,80.80
2018-12-19T15:38:09.943Z,81.11
2018-12-19T15:40:37.359Z,80.68
2018-12-19T15:43:04.872Z,80.17
2018-12-19T15:45:32.285Z,80.16
2018-12-19T15:47:59.682Z,80.49
2018-12-19T15:50:27.199Z,80.62
2018-12-19T15:52:54.620Z,80.63
2018-12-19T15:55:22.071Z,80.46
2018-12-19T15:57:49.498Z,80.20
2018-12-19T16:00:16.926Z,79.74
2018-12-19T16:02:44.331Z,78.64
2018-12-19T16:05:11.738Z,78.48
2018-12-19T16:07:39.155Z,78.06
2018-12-19T16:10:06.556Z,78.72
2018-12-19T16:12:39.219Z,79.28
2018-12-19T16:15:01.371Z,78.37
2018-12-19T16:17:28.803Z,78.90
2018-12-19T16:19:56.482Z,78.90
2018-12-19T16:22:24.122Z,79.25
2018-12-19T16:24:51.523Z,78.93
2018-12-19T16:27:18.961Z,79.12
2018-12-19T16:29:46.421Z,79.14
2018-12-19T16:32:13.819Z,79.19
2018-12-19T16:34:41.257Z,79.14
2018-12-19T16:37:08.695Z,78.86
2018-12-19T16:39:37.138Z,78.90
2018-12-19T16:42:04.611Z,79.02
2018-12-19T16:44:32.004Z,78.77
2018-12-19T16:46:59.415Z,78.76
2018-12-19T16:49:26.947Z,79.22
2018-12-19T16:51:54.354Z,79.73
2018-12-19T16:54:26.685Z,80.16
2018-12-19T16:56:54.114Z,80.21
2018-12-19T16:59:21.590Z,79.78
2018-12-19T17:01:49.014Z,79.95
2018-12-19T17:04:16.480Z,80.48
2018-12-19T17:06:44.011Z,80.33
2018-12-19T17:09:11.488Z,80.50
2018-12-19T17:11:38.985Z,80.65
2018-12-19T17:14:06.558Z,80.73
2018-12-19T17:16:33.957Z,80.44
2018-12-19T17:19:01.443Z,80.39
2018-12-19T17:21:28.883Z,80.25
2018-12-19T17:23:56.296Z,80.21
2018-12-19T17:26:23.681Z,80.11
2018-12-19T17:28:51.105Z,80.22
2018-12-19T17:31:18.586Z,80.22
2018-12-19T17:33:45.980Z,80.32
2018-12-19T17:36:13.476Z,80.23
2018-12-19T17:38:40.874Z,80.09
2018-12-19T17:41:08.305Z,79.69
2018-12-19T17:43:35.719Z,79.32
2018-12-19T17:46:03.135Z,79.36
2018-12-19T17:48:30.541Z,79.37
2018-12-19T17:50:57.954Z,79.18
2018-12-19T17:53:25.361Z,79.31
2018-12-19T17:55:52.759Z,79.41
2018-12-19T17:58:20.209Z,79.41
2018-12-19T18:00:47.647Z,78.75
2018-12-19T18:03:15.060Z,78.27
2018-12-19T18:05:42.457Z,78.22
2018-12-19T18:08:09.852Z,78.21
2018-12-19T18:10:37.324Z,78.90
2018-12-19T18:13:06.342Z,79.37
2018-12-19T18:15:32.616Z,79.62
2018-12-19T18:18:00.031Z,80.22
2018-12-19T18:20:27.427Z,80.20
2018-12-19T18:22:54.832Z,80.23
2018-12-19T18:25:22.296Z,80.12
2018-12-19T18:27:49.752Z,80.08
2018-12-19T18:30:17.179Z,79.92
2018-12-19T18:32:44.641Z,79.68
2018-12-19T18:35:12.231Z,80.14
2018-12-19T18:37:39.634Z,80.15
2018-12-19T18:40:07.162Z,80.62
2018-12-19T18:42:34.560Z,80.60
2018-12-19T18:45:01.996Z,80.77
2018-12-19T18:47:29.407Z,81.03
2018-12-19T18:49:57.058Z,81.07
2018-12-19T18:52:24.566Z,81.29
2018-12-19T18:54:51.965Z,81.84
2018-12-19T18:57:19.358Z,82.21
2018-12-19T18:59:46.812Z,82.09
2018-12-19T19:02:14.234Z,82.08
2018-12-19T19:04:41.699Z,82.52
2018-12-19T19:07:09.109Z,82.53
2018-12-19T19:09:36.596Z,82.80
2018-12-19T19:12:04.061Z,83.05
2018-12-19T19:14:31.515Z,82.99
2018-12-19T19:16:58.926Z,83.02
2018-12-19T19:19:26.395Z,82.83
2018-12-19T19:21:53.987Z,82.61
2018-12-19T19:24:21.514Z,82.64
2018-12-19T19:26:49.090Z,82.79
2018-12-19T19:29:16.582Z,82.97
2018-12-19T19:31:43.985Z,82.91
2018-12-19T19:34:11.469Z,83.00
2018-12-19T19:36:39.149Z,82.99
2018-12-19T19:39:06.594Z,82.85
2018-12-19T19:41:34.022Z,82.73
2018-12-19T19:44:01.406Z,82.59
2018-12-19T19:46:28.821Z,82.35
2018-12-19T19:48:56.257Z,82.37
2018-12-19T19:51:23.659Z,82.51
2018-12-19T19:53:51.193Z,82.50
2018-12-19T19:56:18.652Z,82.52
2018-12-19T19:58:46.063Z,82.63
2018-12-19T20:01:13.493Z,82.38
2018-12-19T20:03:42.588Z,82.49
2018-12-19T20:06:10.374Z,82.62
2018-12-19T20:08:37.813Z,82.63
2018-12-19T20:11:05.244Z,82.45
2018-12-19T20:13:33.463Z,82.19
2018-12-19T20:16:00.137Z,82.24
2018-12-19T20:18:27.552Z,82.14
2018-12-19T20:20:54.959Z,81.87
2018-12-19T20:23:22.466Z,82.06
2018-12-19T20:25:49.912Z,82.04
2018-12-19T20:28:17.316Z,82.19
2018-12-19T20:30:44.775Z,82.20
2018-12-19T20:33:12.252Z,81.97
2018-12-19T20:35:39.689Z,81.76
2018-12-19T20:38:07.207Z,81.64
2018-12-19T20:40:34.626Z,81.85
2018-12-19T20:43:06.532Z,81.89
2018-12-19T20:45:29.516Z,81.81
2018-12-19T20:47:56.988Z,81.56
2018-12-19T20:50:24.424Z,81.57
2018-12-19T20:52:51.976Z,81.86
2018-12-19T20:55:19.377Z,81.96
2018-12-19T20:57:46.829Z,81.50
2018-12-19T21:00:14.272Z,81.30
2018-12-19T21:02:41.915Z,81.16
2018-12-19T21:05:09.333Z,81.05
2018-12-19T21:07:36.741Z,81.06
2018-12-19T21:10:04.230Z,80.96
2018-12-19T21:12:31.636Z,81.05
2018-12-19T21:14:59.895Z,81.13
2018-12-19T21:17:32.919Z,80.84
2018-12-19T21:20:00.402Z,80.62
2018-12-19T21:22:27.823Z,80.68
2018-12-19T21:24:55.233Z,80.45
2018-12-19T21:27:22.685Z,80.13
2018-12-19T21:29:50.214Z,80.14
2018-12-19T21:32:17.629Z,80.17
2018-12-19T21:34:45.324Z,80.05
2018-12-19T21:37:12.755Z,80.00
2018-12-19T21:39:40.221Z,79.90
2018-12-19T21:42:07.711Z,79.87
2018-12-19T21:44:35.131Z,80.06
2018-12-19T21:47:02.591Z,80.43
2018-12-19T21:49:30.015Z,80.86
2018-12-19T21:51:57.419Z,81.16
2018-12-19T21:54:24.973Z,81.41
2018-12-19T21:56:52.375Z,81.52
2018-12-19T21:59:19.819Z,81.29
2018-12-19T22:01:47.268Z,81.10
2018-12-19T22:04:14.742Z,80.93
2018-12-19T22:06:42.276Z,80.80
2018-12-19T22:09:09.707Z,81.05
2018-12-19T22:11:38.280Z,81.47
2018-12-19T22:14:05.690Z,81.52
2018-12-19T22:16:38.717Z,81.05
2018-12-19T22:19:06.128Z,80.90
2018-12-19T22:21:33.555Z,81.04
2018-12-19T22:24:00.983Z,81.23
2018-12-19T22:26:28.370Z,81.27
2018-12-19T22:28:57.015Z,81.94
2018-12-19T22:31:24.418Z,82.00
2018-12-19T22:33:51.911Z,81.81
2018-12-19T22:36:19.321Z,82.04
2018-12-19T22:38:46.937Z,82.04
2018-12-19T22:41:14.360Z,82.13
2018-12-19T22:43:41.777Z,82.12
2018-12-19T22:46:09.216Z,82.41
2018-12-19T22:48:36.683Z,82.39
2018-12-19T22:51:04.143Z,82.28
2018-12-19T22:53:31.547Z,82.27
2018-12-19T22:55:59.017Z,82.12
2018-12-19T22:58:26.503Z,81.76
2018-12-19T23:00:59.394Z,81.94
2018-12-19T23:03:45.568Z,82.09
2018-12-19T23:06:13.012Z,81.97
2018-12-19T23:08:40.433Z,82.01
2018-12-19T23:11:07.870Z,82.30
2018-12-19T23:13:35.267Z,82.33
2018-12-19T23:16:02.749Z,82.25
2018-12-19T23:18:30.150Z,82.32
2018-12-19T23:20:57.540Z,82.56
2018-12-19T23:23:24.943Z,82.55
2018-12-19T23:25:52.378Z,82.75
2018-12-19T23:28:19.912Z,82.78
2018-12-19T23:30:47.248Z,82.67
2018-12-19T23:33:14.747Z,82.55
2018-12-19T23:35:42.085Z,82.63
2018-12-19T23:38:09.486Z,82.56
2018-12-19T23:40:36.879Z,82.72
2018-12-19T23:43:04.358Z,82.67
2018-12-19T23:45:31.722Z,82.63
2018-12-19T23:47:59.295Z,82.71
2018-12-19T23:50:26.726Z,82.52
2018-12-19T23:52:54.022Z,82.37
2018-12-19T23:55:21.537Z,82.40
2018-12-19T23:57:49.025Z,82.49
